sensor_id;sensor_type;location;lat;lon;timestamp;P1;durP1;ratioP1;P2;durP2;ratioP2
61638;SDS011;47544;52.484;4.658;2024-02-23T00:00:16;8.48;;;2.85;;
61638;SDS011;47544;52.484;4.658;2024-02-23T00:00:28;9.82;;;2.53;;
61638;SDS011;47544;52.484;4.658;2024-02-23T00:00:39;9.60;;;2.20;;
61638;SDS011;47544;52.484;4.658;2024-02-23T00:00:51;10.35;;;2.47;;
61638;SDS011;47544;52.484;4.658;2024-02-23T00:01:02;10.23;;;2.88;;
61638;SDS011;47544;52.484;4.658;2024-02-23T00:01:13;10.48;;;3.30;;
61638;SDS011;47544;52.484;4.658;2024-02-23T00:01:24;9.13;;;2.65;;
61638;SDS011;47544;52.484;4.658;2024-02-23T00:01:35;8.93;;;2.05;;
61638;SDS011;47544;52.484;4.658;2024-02-23T00:01:47;7.50;;;1.50;;
61638;SDS011;47544;52.484;4.658;2024-02-23T00:01:58;7.65;;;1.45;;
61638;SDS011;47544;52.484;4.658;2024-02-23T00:02:09;8.77;;;2.05;;
61638;SDS011;47544;52.484;4.658;2024-02-23T00:02:21;9.38;;;2.38;;
61638;SDS011;47544;52.484;4.658;2024-02-23T00:02:34;9.88;;;2.47;;
61638;SDS011;47544;52.484;4.658;2024-02-23T00:02:45;9.70;;;2.03;;
61638;SDS011;47544;52.484;4.658;2024-02-23T00:02:56;8.70;;;1.73;;
61638;SDS011;47544;52.484;4.658;2024-02-23T00:03:09;8.38;;;1.88;;
61638;SDS011;47544;52.484;4.658;2024-02-23T00:03:21;8.90;;;2.17;;
61638;SDS011;47544;52.484;4.658;2024-02-23T00:03:32;10.50;;;2.33;;
61638;SDS011;47544;52.484;4.658;2024-02-23T00:03:45;8.40;;;1.75;;
61638;SDS011;47544;52.484;4.658;2024-02-23T00:03:56;8.55;;;1.83;;
61638;SDS011;47544;52.484;4.658;2024-02-23T00:04:07;9.48;;;2.28;;
61638;SDS011;47544;52.484;4.658;2024-02-23T00:04:20;10.70;;;3.05;;
61638;SDS011;47544;52.484;4.658;2024-02-23T00:04:31;10.18;;;3.40;;
61638;SDS011;47544;52.484;4.658;2024-02-23T00:04:42;8.93;;;3.10;;
61638;SDS011;47544;52.484;4.658;2024-02-23T00:04:53;7.47;;;2.38;;
61638;SDS011;47544;52.484;4.658;2024-02-23T00:05:06;7.03;;;1.75;;
61638;SDS011;47544;52.484;4.658;2024-02-23T00:05:17;8.48;;;1.85;;
61638;SDS011;47544;52.484;4.658;2024-02-23T00:05:28;9.00;;;2.00;;
61638;SDS011;47544;52.484;4.658;2024-02-23T00:05:42;10.82;;;2.05;;
61638;SDS011;47544;52.484;4.658;2024-02-23T00:05:52;9.82;;;2.08;;
61638;SDS011;47544;52.484;4.658;2024-02-23T00:06:04;10.48;;;2.10;;
61638;SDS011;47544;52.484;4.658;2024-02-23T00:06:15;8.57;;;1.95;;
61638;SDS011;47544;52.484;4.658;2024-02-23T00:06:27;9.57;;;2.03;;
61638;SDS011;47544;52.484;4.658;2024-02-23T00:06:38;9.10;;;2.35;;
61638;SDS011;47544;52.484;4.658;2024-02-23T00:06:50;10.55;;;2.45;;
61638;SDS011;47544;52.484;4.658;2024-02-23T00:07:01;10.48;;;2.05;;
61638;SDS011;47544;52.484;4.658;2024-02-23T00:07:13;11.00;;;1.77;;
61638;SDS011;47544;52.484;4.658;2024-02-23T00:07:24;10.32;;;2.38;;
61638;SDS011;47544;52.484;4.658;2024-02-23T00:07:35;10.50;;;3.03;;
61638;SDS011;47544;52.484;4.658;2024-02-23T00:07:46;10.68;;;3.40;;
61638;SDS011;47544;52.484;4.658;2024-02-23T00:07:58;14.30;;;2.97;;
61638;SDS011;47544;52.484;4.658;2024-02-23T00:08:09;15.70;;;2.55;;
61638;SDS011;47544;52.484;4.658;2024-02-23T00:08:21;13.70;;;2.28;;
61638;SDS011;47544;52.484;4.658;2024-02-23T00:08:32;8.68;;;2.05;;
61638;SDS011;47544;52.484;4.658;2024-02-23T00:08:43;7.90;;;1.75;;
61638;SDS011;47544;52.484;4.658;2024-02-23T00:08:54;10.82;;;1.65;;
61638;SDS011;47544;52.484;4.658;2024-02-23T00:09:05;13.82;;;2.03;;
61638;SDS011;47544;52.484;4.658;2024-02-23T00:09:16;13.80;;;2.17;;
61638;SDS011;47544;52.484;4.658;2024-02-23T00:09:27;12.40;;;2.13;;
61638;SDS011;47544;52.484;4.658;2024-02-23T00:09:38;8.95;;;1.73;;
61638;SDS011;47544;52.484;4.658;2024-02-23T00:09:49;7.70;;;1.80;;
61638;SDS011;47544;52.484;4.658;2024-02-23T00:10:01;6.20;;;1.95;;
61638;SDS011;47544;52.484;4.658;2024-02-23T00:10:13;5.85;;;2.10;;
61638;SDS011;47544;52.484;4.658;2024-02-23T00:10:24;7.35;;;2.50;;
61638;SDS011;47544;52.484;4.658;2024-02-23T00:10:36;8.50;;;2.58;;
61638;SDS011;47544;52.484;4.658;2024-02-23T00:10:47;10.27;;;2.50;;
61638;SDS011;47544;52.484;4.658;2024-02-23T00:10:58;11.20;;;2.70;;
61638;SDS011;47544;52.484;4.658;2024-02-23T00:11:09;9.98;;;2.63;;
61638;SDS011;47544;52.484;4.658;2024-02-23T00:11:20;8.75;;;2.47;;
61638;SDS011;47544;52.484;4.658;2024-02-23T00:11:31;8.90;;;2.05;;
61638;SDS011;47544;52.484;4.658;2024-02-23T00:11:43;9.95;;;2.22;;
61638;SDS011;47544;52.484;4.658;2024-02-23T00:11:55;7.70;;;2.13;;
61638;SDS011;47544;52.484;4.658;2024-02-23T00:12:06;8.05;;;1.98;;
61638;SDS011;47544;52.484;4.658;2024-02-23T00:12:19;9.05;;;1.75;;
61638;SDS011;47544;52.484;4.658;2024-02-23T00:12:31;8.00;;;1.80;;
61638;SDS011;47544;52.484;4.658;2024-02-23T00:12:42;7.38;;;1.92;;
61638;SDS011;47544;52.484;4.658;2024-02-23T00:12:54;7.90;;;1.77;;
61638;SDS011;47544;52.484;4.658;2024-02-23T00:13:05;8.82;;;1.73;;
61638;SDS011;47544;52.484;4.658;2024-02-23T00:13:16;8.02;;;1.70;;
61638;SDS011;47544;52.484;4.658;2024-02-23T00:13:27;6.80;;;1.75;;
61638;SDS011;47544;52.484;4.658;2024-02-23T00:13:38;6.38;;;1.83;;
61638;SDS011;47544;52.484;4.658;2024-02-23T00:13:49;5.25;;;1.55;;
61638;SDS011;47544;52.484;4.658;2024-02-23T00:14:00;4.40;;;1.35;;
61638;SDS011;47544;52.484;4.658;2024-02-23T00:14:11;5.47;;;1.20;;
61638;SDS011;47544;52.484;4.658;2024-02-23T00:14:23;6.82;;;1.35;;
61638;SDS011;47544;52.484;4.658;2024-02-23T00:14:35;8.85;;;1.65;;
61638;SDS011;47544;52.484;4.658;2024-02-23T00:14:46;7.60;;;1.60;;
61638;SDS011;47544;52.484;4.658;2024-02-23T00:14:57;7.43;;;1.60;;
61638;SDS011;47544;52.484;4.658;2024-02-23T00:15:09;8.10;;;1.60;;
61638;SDS011;47544;52.484;4.658;2024-02-23T00:15:20;7.75;;;1.42;;
61638;SDS011;47544;52.484;4.658;2024-02-23T00:15:31;6.65;;;1.40;;
61638;SDS011;47544;52.484;4.658;2024-02-23T00:15:41;9.05;;;1.35;;
61638;SDS011;47544;52.484;4.658;2024-02-23T00:15:54;9.77;;;1.73;;
61638;SDS011;47544;52.484;4.658;2024-02-23T00:16:05;8.65;;;1.92;;
61638;SDS011;47544;52.484;4.658;2024-02-23T00:16:16;7.50;;;2.05;;
61638;SDS011;47544;52.484;4.658;2024-02-23T00:16:29;7.97;;;2.20;;
61638;SDS011;47544;52.484;4.658;2024-02-23T00:16:40;6.63;;;1.98;;
61638;SDS011;47544;52.484;4.658;2024-02-23T00:16:52;6.63;;;1.80;;
61638;SDS011;47544;52.484;4.658;2024-02-23T00:17:03;6.53;;;1.70;;
61638;SDS011;47544;52.484;4.658;2024-02-23T00:17:14;8.50;;;2.08;;
61638;SDS011;47544;52.484;4.658;2024-02-23T00:17:26;7.90;;;1.85;;
61638;SDS011;47544;52.484;4.658;2024-02-23T00:17:38;8.90;;;1.75;;
61638;SDS011;47544;52.484;4.658;2024-02-23T00:17:50;9.55;;;2.38;;
61638;SDS011;47544;52.484;4.658;2024-02-23T00:18:00;9.43;;;2.53;;
61638;SDS011;47544;52.484;4.658;2024-02-23T00:18:14;8.38;;;2.13;;
61638;SDS011;47544;52.484;4.658;2024-02-23T00:18:27;8.85;;;2.05;;
61638;SDS011;47544;52.484;4.658;2024-02-23T00:18:39;10.88;;;2.33;;
61638;SDS011;47544;52.484;4.658;2024-02-23T00:18:50;9.10;;;2.60;;
61638;SDS011;47544;52.484;4.658;2024-02-23T00:19:01;9.77;;;2.58;;
61638;SDS011;47544;52.484;4.658;2024-02-23T00:19:13;8.07;;;2.40;;
61638;SDS011;47544;52.484;4.658;2024-02-23T00:19:24;8.60;;;2.40;;
61638;SDS011;47544;52.484;4.658;2024-02-23T00:19:35;7.80;;;2.30;;
61638;SDS011;47544;52.484;4.658;2024-02-23T00:19:46;6.65;;;1.90;;
61638;SDS011;47544;52.484;4.658;2024-02-23T00:19:57;7.85;;;1.70;;
61638;SDS011;47544;52.484;4.658;2024-02-23T00:20:09;9.02;;;1.63;;
61638;SDS011;47544;52.484;4.658;2024-02-23T00:20:21;8.85;;;1.80;;
61638;SDS011;47544;52.484;4.658;2024-02-23T00:20:32;7.57;;;1.80;;
61638;SDS011;47544;52.484;4.658;2024-02-23T00:20:44;7.38;;;1.90;;
61638;SDS011;47544;52.484;4.658;2024-02-23T00:20:56;9.43;;;1.90;;
61638;SDS011;47544;52.484;4.658;2024-02-23T00:21:08;10.18;;;1.80;;
61638;SDS011;47544;52.484;4.658;2024-02-23T00:21:19;7.63;;;1.42;;
61638;SDS011;47544;52.484;4.658;2024-02-23T00:21:30;8.27;;;1.65;;
61638;SDS011;47544;52.484;4.658;2024-02-23T00:21:41;6.78;;;1.65;;
61638;SDS011;47544;52.484;4.658;2024-02-23T00:21:53;6.10;;;1.58;;
61638;SDS011;47544;52.484;4.658;2024-02-23T00:22:04;4.90;;;1.15;;
61638;SDS011;47544;52.484;4.658;2024-02-23T00:22:16;5.80;;;1.23;;
61638;SDS011;47544;52.484;4.658;2024-02-23T00:22:28;8.73;;;1.40;;
61638;SDS011;47544;52.484;4.658;2024-02-23T00:22:39;11.03;;;1.73;;
61638;SDS011;47544;52.484;4.658;2024-02-23T00:22:50;10.53;;;1.70;;
61638;SDS011;47544;52.484;4.658;2024-02-23T00:23:02;9.53;;;1.60;;
61638;SDS011;47544;52.484;4.658;2024-02-23T00:23:13;7.63;;;1.33;;
61638;SDS011;47544;52.484;4.658;2024-02-23T00:23:24;6.22;;;1.25;;
61638;SDS011;47544;52.484;4.658;2024-02-23T00:23:35;5.13;;;1.20;;
61638;SDS011;47544;52.484;4.658;2024-02-23T00:23:46;5.88;;;1.25;;
61638;SDS011;47544;52.484;4.658;2024-02-23T00:23:58;8.18;;;1.85;;
61638;SDS011;47544;52.484;4.658;2024-02-23T00:24:10;10.10;;;2.63;;
61638;SDS011;47544;52.484;4.658;2024-02-23T00:24:22;8.93;;;2.33;;
61638;SDS011;47544;52.484;4.658;2024-02-23T00:24:35;7.15;;;1.80;;
61638;SDS011;47544;52.484;4.658;2024-02-23T00:24:47;6.70;;;1.80;;
61638;SDS011;47544;52.484;4.658;2024-02-23T00:25:01;8.30;;;1.70;;
61638;SDS011;47544;52.484;4.658;2024-02-23T00:25:12;8.40;;;1.85;;
61638;SDS011;47544;52.484;4.658;2024-02-23T00:25:23;7.72;;;1.88;;
61638;SDS011;47544;52.484;4.658;2024-02-23T00:25:35;8.98;;;1.88;;
61638;SDS011;47544;52.484;4.658;2024-02-23T00:25:46;9.30;;;1.73;;
61638;SDS011;47544;52.484;4.658;2024-02-23T00:25:57;11.18;;;1.80;;
61638;SDS011;47544;52.484;4.658;2024-02-23T00:26:08;10.30;;;1.80;;
61638;SDS011;47544;52.484;4.658;2024-02-23T00:26:20;6.70;;;1.27;;
61638;SDS011;47544;52.484;4.658;2024-02-23T00:26:31;6.47;;;1.38;;
61638;SDS011;47544;52.484;4.658;2024-02-23T00:26:42;9.05;;;1.92;;
61638;SDS011;47544;52.484;4.658;2024-02-23T00:26:53;10.02;;;2.47;;
61638;SDS011;47544;52.484;4.658;2024-02-23T00:27:04;9.65;;;2.15;;
61638;SDS011;47544;52.484;4.658;2024-02-23T00:27:15;8.45;;;2.15;;
61638;SDS011;47544;52.484;4.658;2024-02-23T00:27:28;7.78;;;2.05;;
61638;SDS011;47544;52.484;4.658;2024-02-23T00:27:39;7.82;;;2.33;;
61638;SDS011;47544;52.484;4.658;2024-02-23T00:27:52;7.30;;;1.77;;
61638;SDS011;47544;52.484;4.658;2024-02-23T00:28:04;6.15;;;1.40;;
61638;SDS011;47544;52.484;4.658;2024-02-23T00:28:16;5.90;;;1.27;;
61638;SDS011;47544;52.484;4.658;2024-02-23T00:28:27;4.85;;;0.95;;
61638;SDS011;47544;52.484;4.658;2024-02-23T00:28:38;5.60;;;1.02;;
61638;SDS011;47544;52.484;4.658;2024-02-23T00:28:49;6.60;;;1.45;;
61638;SDS011;47544;52.484;4.658;2024-02-23T00:29:00;7.43;;;1.73;;
61638;SDS011;47544;52.484;4.658;2024-02-23T00:29:11;8.45;;;1.85;;
61638;SDS011;47544;52.484;4.658;2024-02-23T00:29:22;9.32;;;2.05;;
61638;SDS011;47544;52.484;4.658;2024-02-23T00:29:34;10.85;;;2.17;;
61638;SDS011;47544;52.484;4.658;2024-02-23T00:29:45;9.60;;;1.98;;
61638;SDS011;47544;52.484;4.658;2024-02-23T00:29:56;7.80;;;1.98;;
61638;SDS011;47544;52.484;4.658;2024-02-23T00:30:08;5.68;;;1.80;;
61638;SDS011;47544;52.484;4.658;2024-02-23T00:30:19;6.47;;;1.88;;
61638;SDS011;47544;52.484;4.658;2024-02-23T00:30:30;6.50;;;1.50;;
61638;SDS011;47544;52.484;4.658;2024-02-23T00:30:41;6.78;;;1.27;;
61638;SDS011;47544;52.484;4.658;2024-02-23T00:30:52;6.45;;;1.10;;
61638;SDS011;47544;52.484;4.658;2024-02-23T00:31:03;8.57;;;1.40;;
61638;SDS011;47544;52.484;4.658;2024-02-23T00:31:14;7.97;;;1.75;;
61638;SDS011;47544;52.484;4.658;2024-02-23T00:31:25;7.30;;;1.58;;
61638;SDS011;47544;52.484;4.658;2024-02-23T00:31:37;8.07;;;1.40;;
61638;SDS011;47544;52.484;4.658;2024-02-23T00:31:48;9.63;;;1.63;;
61638;SDS011;47544;52.484;4.658;2024-02-23T00:32:00;8.43;;;1.80;;
61638;SDS011;47544;52.484;4.658;2024-02-23T00:32:11;6.53;;;1.70;;
61638;SDS011;47544;52.484;4.658;2024-02-23T00:32:22;8.77;;;1.85;;
61638;SDS011;47544;52.484;4.658;2024-02-23T00:32:33;9.63;;;1.75;;
61638;SDS011;47544;52.484;4.658;2024-02-23T00:32:45;10.45;;;1.58;;
61638;SDS011;47544;52.484;4.658;2024-02-23T00:32:56;7.03;;;1.10;;
61638;SDS011;47544;52.484;4.658;2024-02-23T00:33:07;6.50;;;0.93;;
61638;SDS011;47544;52.484;4.658;2024-02-23T00:33:19;6.32;;;1.00;;
61638;SDS011;47544;52.484;4.658;2024-02-23T00:33:34;6.95;;;1.10;;
61638;SDS011;47544;52.484;4.658;2024-02-23T00:33:48;5.90;;;1.55;;
61638;SDS011;47544;52.484;4.658;2024-02-23T00:34:02;6.63;;;1.63;;
61638;SDS011;47544;52.484;4.658;2024-02-23T00:34:13;8.75;;;1.83;;
61638;SDS011;47544;52.484;4.658;2024-02-23T00:34:26;9.90;;;1.80;;
61638;SDS011;47544;52.484;4.658;2024-02-23T00:34:37;10.73;;;1.98;;
61638;SDS011;47544;52.484;4.658;2024-02-23T00:34:48;9.93;;;1.85;;
61638;SDS011;47544;52.484;4.658;2024-02-23T00:34:59;9.05;;;1.83;;
61638;SDS011;47544;52.484;4.658;2024-02-23T00:35:10;8.77;;;1.70;;
61638;SDS011;47544;52.484;4.658;2024-02-23T00:35:21;8.23;;;1.70;;
61638;SDS011;47544;52.484;4.658;2024-02-23T00:35:31;7.32;;;1.75;;
61638;SDS011;47544;52.484;4.658;2024-02-23T00:35:42;6.97;;;1.50;;
61638;SDS011;47544;52.484;4.658;2024-02-23T00:35:54;7.32;;;1.40;;
61638;SDS011;47544;52.484;4.658;2024-02-23T00:36:06;7.05;;;1.52;;
61638;SDS011;47544;52.484;4.658;2024-02-23T00:36:16;7.45;;;1.77;;
61638;SDS011;47544;52.484;4.658;2024-02-23T00:36:27;8.27;;;1.90;;
61638;SDS011;47544;52.484;4.658;2024-02-23T00:36:39;10.23;;;1.80;;
61638;SDS011;47544;52.484;4.658;2024-02-23T00:36:50;8.60;;;1.23;;
61638;SDS011;47544;52.484;4.658;2024-02-23T00:37:01;6.88;;;1.17;;
61638;SDS011;47544;52.484;4.658;2024-02-23T00:37:14;5.20;;;0.88;;
61638;SDS011;47544;52.484;4.658;2024-02-23T00:37:25;4.18;;;0.77;;
61638;SDS011;47544;52.484;4.658;2024-02-23T00:37:36;6.45;;;1.35;;
61638;SDS011;47544;52.484;4.658;2024-02-23T00:37:48;8.35;;;1.75;;
61638;SDS011;47544;52.484;4.658;2024-02-23T00:38:00;8.75;;;1.77;;
61638;SDS011;47544;52.484;4.658;2024-02-23T00:38:11;8.50;;;1.58;;
61638;SDS011;47544;52.484;4.658;2024-02-23T00:38:22;9.10;;;1.73;;
61638;SDS011;47544;52.484;4.658;2024-02-23T00:38:33;10.68;;;2.08;;
61638;SDS011;47544;52.484;4.658;2024-02-23T00:38:44;8.88;;;1.95;;
61638;SDS011;47544;52.484;4.658;2024-02-23T00:38:55;8.10;;;1.83;;
61638;SDS011;47544;52.484;4.658;2024-02-23T00:39:07;8.45;;;2.25;;
61638;SDS011;47544;52.484;4.658;2024-02-23T00:39:18;10.63;;;2.90;;
61638;SDS011;47544;52.484;4.658;2024-02-23T00:39:29;9.50;;;2.58;;
61638;SDS011;47544;52.484;4.658;2024-02-23T00:39:42;7.30;;;2.03;;
61638;SDS011;47544;52.484;4.658;2024-02-23T00:39:53;6.93;;;1.65;;
61638;SDS011;47544;52.484;4.658;2024-02-23T00:40:05;6.95;;;1.50;;
61638;SDS011;47544;52.484;4.658;2024-02-23T00:40:16;7.22;;;1.35;;
61638;SDS011;47544;52.484;4.658;2024-02-23T00:40:27;7.07;;;1.33;;
61638;SDS011;47544;52.484;4.658;2024-02-23T00:40:38;8.07;;;1.60;;
61638;SDS011;47544;52.484;4.658;2024-02-23T00:40:49;9.15;;;1.95;;
61638;SDS011;47544;52.484;4.658;2024-02-23T00:41:00;11.35;;;2.25;;
61638;SDS011;47544;52.484;4.658;2024-02-23T00:41:11;10.45;;;2.00;;
61638;SDS011;47544;52.484;4.658;2024-02-23T00:41:24;7.85;;;1.42;;
61638;SDS011;47544;52.484;4.658;2024-02-23T00:41:36;8.00;;;1.55;;
61638;SDS011;47544;52.484;4.658;2024-02-23T00:41:47;7.50;;;1.83;;
61638;SDS011;47544;52.484;4.658;2024-02-23T00:41:58;7.30;;;1.80;;
61638;SDS011;47544;52.484;4.658;2024-02-23T00:42:09;7.57;;;1.80;;
61638;SDS011;47544;52.484;4.658;2024-02-23T00:42:20;8.88;;;1.98;;
61638;SDS011;47544;52.484;4.658;2024-02-23T00:42:31;8.98;;;2.00;;
61638;SDS011;47544;52.484;4.658;2024-02-23T00:42:42;7.40;;;1.67;;
61638;SDS011;47544;52.484;4.658;2024-02-23T00:42:53;9.13;;;1.60;;
61638;SDS011;47544;52.484;4.658;2024-02-23T00:43:04;9.80;;;1.35;;
61638;SDS011;47544;52.484;4.658;2024-02-23T00:43:16;7.40;;;1.15;;
61638;SDS011;47544;52.484;4.658;2024-02-23T00:43:27;6.22;;;1.00;;
61638;SDS011;47544;52.484;4.658;2024-02-23T00:43:40;6.10;;;1.08;;
61638;SDS011;47544;52.484;4.658;2024-02-23T00:43:51;5.47;;;0.90;;
61638;SDS011;47544;52.484;4.658;2024-02-23T00:44:02;4.63;;;1.00;;
61638;SDS011;47544;52.484;4.658;2024-02-23T00:44:13;5.97;;;1.25;;
61638;SDS011;47544;52.484;4.658;2024-02-23T00:44:24;7.95;;;1.40;;
61638;SDS011;47544;52.484;4.658;2024-02-23T00:44:35;8.73;;;1.50;;
61638;SDS011;47544;52.484;4.658;2024-02-23T00:44:47;7.20;;;1.63;;
61638;SDS011;47544;52.484;4.658;2024-02-23T00:44:58;7.55;;;1.80;;
61638;SDS011;47544;52.484;4.658;2024-02-23T00:45:10;7.05;;;1.52;;
61638;SDS011;47544;52.484;4.658;2024-02-23T00:45:21;7.32;;;1.48;;
61638;SDS011;47544;52.484;4.658;2024-02-23T00:45:32;7.55;;;1.65;;
61638;SDS011;47544;52.484;4.658;2024-02-23T00:45:43;7.25;;;1.75;;
61638;SDS011;47544;52.484;4.658;2024-02-23T00:45:54;6.53;;;1.67;;
61638;SDS011;47544;52.484;4.658;2024-02-23T00:46:05;5.80;;;1.65;;
61638;SDS011;47544;52.484;4.658;2024-02-23T00:46:16;5.03;;;1.38;;
61638;SDS011;47544;52.484;4.658;2024-02-23T00:46:27;5.80;;;1.35;;
61638;SDS011;47544;52.484;4.658;2024-02-23T00:46:38;6.70;;;1.17;;
61638;SDS011;47544;52.484;4.658;2024-02-23T00:46:49;7.60;;;1.55;;
61638;SDS011;47544;52.484;4.658;2024-02-23T00:47:00;7.25;;;1.80;;
61638;SDS011;47544;52.484;4.658;2024-02-23T00:47:12;6.57;;;1.90;;
61638;SDS011;47544;52.484;4.658;2024-02-23T00:47:24;7.78;;;1.95;;
61638;SDS011;47544;52.484;4.658;2024-02-23T00:47:35;8.48;;;1.90;;
61638;SDS011;47544;52.484;4.658;2024-02-23T00:47:48;9.18;;;1.75;;
61638;SDS011;47544;52.484;4.658;2024-02-23T00:48:00;8.13;;;1.48;;
61638;SDS011;47544;52.484;4.658;2024-02-23T00:48:11;7.57;;;1.02;;
61638;SDS011;47544;52.484;4.658;2024-02-23T00:48:23;7.25;;;1.13;;
61638;SDS011;47544;52.484;4.658;2024-02-23T00:48:34;6.65;;;1.40;;
61638;SDS011;47544;52.484;4.658;2024-02-23T00:48:45;7.30;;;1.58;;
61638;SDS011;47544;52.484;4.658;2024-02-23T00:48:56;7.30;;;1.42;;
61638;SDS011;47544;52.484;4.658;2024-02-23T00:49:07;7.30;;;1.48;;
61638;SDS011;47544;52.484;4.658;2024-02-23T00:49:19;5.75;;;1.48;;
61638;SDS011;47544;52.484;4.658;2024-02-23T00:49:30;7.00;;;1.77;;
61638;SDS011;47544;52.484;4.658;2024-02-23T00:49:41;7.70;;;1.75;;
61638;SDS011;47544;52.484;4.658;2024-02-23T00:49:52;6.55;;;1.50;;
61638;SDS011;47544;52.484;4.658;2024-02-23T00:50:03;5.07;;;1.42;;
61638;SDS011;47544;52.484;4.658;2024-02-23T00:50:15;5.60;;;1.48;;
61638;SDS011;47544;52.484;4.658;2024-02-23T00:50:26;6.55;;;1.60;;
61638;SDS011;47544;52.484;4.658;2024-02-23T00:50:37;6.68;;;1.92;;
61638;SDS011;47544;52.484;4.658;2024-02-23T00:50:48;7.28;;;2.03;;
61638;SDS011;47544;52.484;4.658;2024-02-23T00:51:02;7.60;;;1.95;;
61638;SDS011;47544;52.484;4.658;2024-02-23T00:51:13;8.60;;;1.77;;
61638;SDS011;47544;52.484;4.658;2024-02-23T00:51:24;6.88;;;1.60;;
61638;SDS011;47544;52.484;4.658;2024-02-23T00:51:36;5.32;;;1.45;;
61638;SDS011;47544;52.484;4.658;2024-02-23T00:51:47;5.80;;;1.40;;
61638;SDS011;47544;52.484;4.658;2024-02-23T00:51:58;6.70;;;1.27;;
61638;SDS011;47544;52.484;4.658;2024-02-23T00:52:09;8.60;;;1.80;;
61638;SDS011;47544;52.484;4.658;2024-02-23T00:52:20;8.45;;;2.10;;
61638;SDS011;47544;52.484;4.658;2024-02-23T00:52:31;8.05;;;2.05;;
61638;SDS011;47544;52.484;4.658;2024-02-23T00:52:43;6.97;;;1.90;;
61638;SDS011;47544;52.484;4.658;2024-02-23T00:52:54;6.75;;;1.75;;
61638;SDS011;47544;52.484;4.658;2024-02-23T00:53:05;6.65;;;1.80;;
61638;SDS011;47544;52.484;4.658;2024-02-23T00:53:16;7.93;;;1.77;;
61638;SDS011;47544;52.484;4.658;2024-02-23T00:53:28;7.95;;;1.48;;
61638;SDS011;47544;52.484;4.658;2024-02-23T00:53:40;8.75;;;1.70;;
61638;SDS011;47544;52.484;4.658;2024-02-23T00:53:51;7.75;;;1.70;;
61638;SDS011;47544;52.484;4.658;2024-02-23T00:54:02;6.97;;;1.58;;
61638;SDS011;47544;52.484;4.658;2024-02-23T00:54:13;5.78;;;1.23;;
61638;SDS011;47544;52.484;4.658;2024-02-23T00:54:24;5.28;;;1.20;;
61638;SDS011;47544;52.484;4.658;2024-02-23T00:54:35;5.85;;;1.33;;
61638;SDS011;47544;52.484;4.658;2024-02-23T00:54:46;6.18;;;1.63;;
61638;SDS011;47544;52.484;4.658;2024-02-23T00:54:57;6.78;;;1.55;;
61638;SDS011;47544;52.484;4.658;2024-02-23T00:55:08;6.57;;;1.45;;
61638;SDS011;47544;52.484;4.658;2024-02-23T00:55:21;5.55;;;1.30;;
61638;SDS011;47544;52.484;4.658;2024-02-23T00:55:35;7.20;;;1.27;;
61638;SDS011;47544;52.484;4.658;2024-02-23T00:55:46;7.85;;;1.27;;
61638;SDS011;47544;52.484;4.658;2024-02-23T00:55:57;5.85;;;1.30;;
61638;SDS011;47544;52.484;4.658;2024-02-23T00:56:09;4.38;;;1.10;;
61638;SDS011;47544;52.484;4.658;2024-02-23T00:56:20;4.93;;;1.17;;
61638;SDS011;47544;52.484;4.658;2024-02-23T00:56:31;6.78;;;1.20;;
61638;SDS011;47544;52.484;4.658;2024-02-23T00:56:41;7.07;;;1.30;;
61638;SDS011;47544;52.484;4.658;2024-02-23T00:56:52;7.15;;;1.38;;
61638;SDS011;47544;52.484;4.658;2024-02-23T00:57:03;5.93;;;1.48;;
61638;SDS011;47544;52.484;4.658;2024-02-23T00:57:14;4.65;;;1.08;;
61638;SDS011;47544;52.484;4.658;2024-02-23T00:57:27;6.68;;;1.25;;
61638;SDS011;47544;52.484;4.658;2024-02-23T00:57:40;7.85;;;1.42;;
61638;SDS011;47544;52.484;4.658;2024-02-23T00:57:51;6.78;;;1.67;;
61638;SDS011;47544;52.484;4.658;2024-02-23T00:58:02;5.22;;;1.55;;
61638;SDS011;47544;52.484;4.658;2024-02-23T00:58:14;5.05;;;1.33;;
61638;SDS011;47544;52.484;4.658;2024-02-23T00:58:26;5.75;;;1.20;;
61638;SDS011;47544;52.484;4.658;2024-02-23T00:58:37;6.50;;;1.13;;
61638;SDS011;47544;52.484;4.658;2024-02-23T00:58:48;6.40;;;1.40;;
61638;SDS011;47544;52.484;4.658;2024-02-23T00:58:59;7.07;;;1.50;;
61638;SDS011;47544;52.484;4.658;2024-02-23T00:59:10;10.30;;;2.03;;
61638;SDS011;47544;52.484;4.658;2024-02-23T00:59:21;8.73;;;1.75;;
61638;SDS011;47544;52.484;4.658;2024-02-23T00:59:33;11.38;;;1.88;;
61638;SDS011;47544;52.484;4.658;2024-02-23T00:59:44;10.43;;;1.77;;
61638;SDS011;47544;52.484;4.658;2024-02-23T00:59:55;8.40;;;1.67;;
61638;SDS011;47544;52.484;4.658;2024-02-23T01:00:07;8.38;;;1.70;;
61638;SDS011;47544;52.484;4.658;2024-02-23T01:00:20;8.30;;;1.48;;
61638;SDS011;47544;52.484;4.658;2024-02-23T01:00:31;6.53;;;1.23;;
61638;SDS011;47544;52.484;4.658;2024-02-23T01:00:41;4.65;;;1.08;;
61638;SDS011;47544;52.484;4.658;2024-02-23T01:00:52;5.07;;;1.15;;
61638;SDS011;47544;52.484;4.658;2024-02-23T01:01:04;4.90;;;1.25;;
61638;SDS011;47544;52.484;4.658;2024-02-23T01:01:15;5.38;;;1.45;;
61638;SDS011;47544;52.484;4.658;2024-02-23T01:01:27;5.35;;;1.38;;
61638;SDS011;47544;52.484;4.658;2024-02-23T01:01:39;6.30;;;1.58;;
61638;SDS011;47544;52.484;4.658;2024-02-23T01:01:51;5.80;;;1.48;;
61638;SDS011;47544;52.484;4.658;2024-02-23T01:02:02;4.72;;;1.23;;
61638;SDS011;47544;52.484;4.658;2024-02-23T01:02:13;3.63;;;1.02;;
61638;SDS011;47544;52.484;4.658;2024-02-23T01:02:24;3.33;;;0.95;;
61638;SDS011;47544;52.484;4.658;2024-02-23T01:02:35;4.35;;;1.10;;
61638;SDS011;47544;52.484;4.658;2024-02-23T01:02:46;6.38;;;1.33;;
61638;SDS011;47544;52.484;4.658;2024-02-23T01:02:59;8.07;;;1.50;;
61638;SDS011;47544;52.484;4.658;2024-02-23T01:03:11;7.90;;;1.42;;
61638;SDS011;47544;52.484;4.658;2024-02-23T01:03:22;6.90;;;1.33;;
61638;SDS011;47544;52.484;4.658;2024-02-23T01:03:33;5.47;;;1.40;;
61638;SDS011;47544;52.484;4.658;2024-02-23T01:03:44;5.93;;;1.60;;
61638;SDS011;47544;52.484;4.658;2024-02-23T01:03:57;5.72;;;1.42;;
61638;SDS011;47544;52.484;4.658;2024-02-23T01:04:08;6.45;;;1.35;;
61638;SDS011;47544;52.484;4.658;2024-02-23T01:04:19;6.53;;;1.45;;
61638;SDS011;47544;52.484;4.658;2024-02-23T01:04:30;7.72;;;1.30;;
61638;SDS011;47544;52.484;4.658;2024-02-23T01:04:41;7.22;;;1.30;;
61638;SDS011;47544;52.484;4.658;2024-02-23T01:04:52;5.78;;;1.08;;
61638;SDS011;47544;52.484;4.658;2024-02-23T01:05:07;5.70;;;1.00;;
61638;SDS011;47544;52.484;4.658;2024-02-23T01:05:20;6.70;;;1.02;;
61638;SDS011;47544;52.484;4.658;2024-02-23T01:05:32;9.60;;;1.30;;
61638;SDS011;47544;52.484;4.658;2024-02-23T01:05:43;10.77;;;1.38;;
61638;SDS011;47544;52.484;4.658;2024-02-23T01:05:54;9.30;;;1.20;;
61638;SDS011;47544;52.484;4.658;2024-02-23T01:06:06;6.40;;;0.90;;
61638;SDS011;47544;52.484;4.658;2024-02-23T01:06:17;5.05;;;1.10;;
61638;SDS011;47544;52.484;4.658;2024-02-23T01:06:28;5.32;;;1.10;;
61638;SDS011;47544;52.484;4.658;2024-02-23T01:06:39;5.78;;;1.27;;
61638;SDS011;47544;52.484;4.658;2024-02-23T01:06:50;6.03;;;1.50;;
61638;SDS011;47544;52.484;4.658;2024-02-23T01:07:01;6.28;;;1.85;;
61638;SDS011;47544;52.484;4.658;2024-02-23T01:07:12;5.20;;;1.60;;
61638;SDS011;47544;52.484;4.658;2024-02-23T01:07:24;4.80;;;1.30;;
61638;SDS011;47544;52.484;4.658;2024-02-23T01:07:35;5.60;;;1.20;;
61638;SDS011;47544;52.484;4.658;2024-02-23T01:07:46;7.28;;;1.15;;
61638;SDS011;47544;52.484;4.658;2024-02-23T01:07:57;6.75;;;1.30;;
61638;SDS011;47544;52.484;4.658;2024-02-23T01:08:09;6.38;;;1.33;;
61638;SDS011;47544;52.484;4.658;2024-02-23T01:08:20;5.28;;;1.25;;
61638;SDS011;47544;52.484;4.658;2024-02-23T01:08:31;5.15;;;1.30;;
61638;SDS011;47544;52.484;4.658;2024-02-23T01:08:42;4.60;;;1.25;;
61638;SDS011;47544;52.484;4.658;2024-02-23T01:08:54;5.57;;;1.42;;